sensor_id;sensor_type;location;lat;lon;timestamp;P1;durP1;ratioP1;P2;durP2;ratioP2
30181;SDS011;16990;49.056;9.240;2022-08-19T00:00:49;15.68;;;12.65;;
30181;SDS011;16990;49.056;9.240;2022-08-19T00:03:16;16.77;;;13.52;;
30181;SDS011;16990;49.056;9.240;2022-08-19T00:05:44;17.35;;;12.75;;
30181;SDS011;16990;49.056;9.240;2022-08-19T00:08:11;18.27;;;14.30;;
30181;SDS011;16990;49.056;9.240;2022-08-19T00:10:38;19.63;;;15.13;;
30181;SDS011;16990;49.056;9.240;2022-08-19T00:13:04;18.05;;;14.93;;
30181;SDS011;16990;49.056;9.240;2022-08-19T00:15:31;17.40;;;13.73;;
30181;SDS011;16990;49.056;9.240;2022-08-19T00:17:57;23.75;;;13.57;;
30181;SDS011;16990;49.056;9.240;2022-08-19T00:20:24;22.35;;;13.73;;
30181;SDS011;16990;49.056;9.240;2022-08-19T00:22:52;17.80;;;14.55;;
30181;SDS011;16990;49.056;9.240;2022-08-19T00:25:20;18.58;;;15.25;;
30181;SDS011;16990;49.056;9.240;2022-08-19T00:27:47;21.67;;;13.50;;
30181;SDS011;16990;49.056;9.240;2022-08-19T00:30:14;21.45;;;14.20;;
30181;SDS011;16990;49.056;9.240;2022-08-19T00:32:41;21.83;;;14.35;;
30181;SDS011;16990;49.056;9.240;2022-08-19T00:35:08;20.20;;;14.18;;
30181;SDS011;16990;49.056;9.240;2022-08-19T00:37:35;17.95;;;13.73;;
30181;SDS011;16990;49.056;9.240;2022-08-19T00:40:05;21.48;;;13.52;;
30181;SDS011;16990;49.056;9.240;2022-08-19T00:42:33;21.45;;;14.48;;
30181;SDS011;16990;49.056;9.240;2022-08-19T00:44:59;24.77;;;16.20;;
30181;SDS011;16990;49.056;9.240;2022-08-19T00:47:26;20.88;;;15.60;;
30181;SDS011;16990;49.056;9.240;2022-08-19T00:49:53;24.20;;;16.05;;
30181;SDS011;16990;49.056;9.240;2022-08-19T00:52:24;24.15;;;15.13;;
30181;SDS011;16990;49.056;9.240;2022-08-19T00:54:54;21.27;;;14.18;;
30181;SDS011;16990;49.056;9.240;2022-08-19T00:57:25;18.83;;;14.90;;
30181;SDS011;16990;49.056;9.240;2022-08-19T00:59:56;17.58;;;14.30;;
30181;SDS011;16990;49.056;9.240;2022-08-19T01:02:26;17.88;;;14.07;;
30181;SDS011;16990;49.056;9.240;2022-08-19T01:04:54;34.40;;;17.33;;
30181;SDS011;16990;49.056;9.240;2022-08-19T01:07:22;19.75;;;15.10;;
30181;SDS011;16990;49.056;9.240;2022-08-19T01:09:49;18.05;;;15.48;;
30181;SDS011;16990;49.056;9.240;2022-08-19T01:12:16;21.90;;;16.85;;
30181;SDS011;16990;49.056;9.240;2022-08-19T01:14:44;20.08;;;16.30;;
30181;SDS011;16990;49.056;9.240;2022-08-19T01:17:11;22.40;;;15.38;;
30181;SDS011;16990;49.056;9.240;2022-08-19T01:19:40;20.13;;;14.88;;
30181;SDS011;16990;49.056;9.240;2022-08-19T01:22:10;17.38;;;14.95;;
30181;SDS011;16990;49.056;9.240;2022-08-19T01:24:43;20.73;;;15.52;;
30181;SDS011;16990;49.056;9.240;2022-08-19T01:27:10;20.42;;;14.57;;
30181;SDS011;16990;49.056;9.240;2022-08-19T01:29:38;22.55;;;16.42;;
30181;SDS011;16990;49.056;9.240;2022-08-19T01:32:06;21.48;;;15.38;;
30181;SDS011;16990;49.056;9.240;2022-08-19T01:34:35;19.48;;;14.48;;
30181;SDS011;16990;49.056;9.240;2022-08-19T01:37:05;21.45;;;15.93;;
30181;SDS011;16990;49.056;9.240;2022-08-19T01:39:36;20.98;;;16.40;;
30181;SDS011;16990;49.056;9.240;2022-08-19T01:42:06;25.55;;;15.77;;
30181;SDS011;16990;49.056;9.240;2022-08-19T01:44:37;23.35;;;15.85;;
30181;SDS011;16990;49.056;9.240;2022-08-19T01:47:05;20.65;;;15.00;;
30181;SDS011;16990;49.056;9.240;2022-08-19T01:49:32;19.25;;;15.40;;
30181;SDS011;16990;49.056;9.240;2022-08-19T01:51:59;22.75;;;15.65;;
30181;SDS011;16990;49.056;9.240;2022-08-19T01:54:27;25.67;;;17.00;;
30181;SDS011;16990;49.056;9.240;2022-08-19T01:56:55;21.35;;;16.08;;
30181;SDS011;16990;49.056;9.240;2022-08-19T01:59:27;27.83;;;16.55;;
30181;SDS011;16990;49.056;9.240;2022-08-19T02:01:54;22.02;;;15.75;;
30181;SDS011;16990;49.056;9.240;2022-08-19T02:04:20;20.92;;;15.40;;
30181;SDS011;16990;49.056;9.240;2022-08-19T02:06:48;25.45;;;17.35;;
30181;SDS011;16990;49.056;9.240;2022-08-19T02:09:14;18.60;;;14.55;;
30181;SDS011;16990;49.056;9.240;2022-08-19T02:11:41;20.05;;;15.60;;
30181;SDS011;16990;49.056;9.240;2022-08-19T02:14:08;23.10;;;16.02;;
30181;SDS011;16990;49.056;9.240;2022-08-19T02:16:36;18.42;;;15.10;;
30181;SDS011;16990;49.056;9.240;2022-08-19T02:19:05;21.20;;;15.35;;
30181;SDS011;16990;49.056;9.240;2022-08-19T02:21:33;23.23;;;15.10;;
30181;SDS011;16990;49.056;9.240;2022-08-19T02:24:01;26.50;;;16.58;;
30181;SDS011;16990;49.056;9.240;2022-08-19T02:26:29;33.25;;;16.20;;
30181;SDS011;16990;49.056;9.240;2022-08-19T02:28:56;23.25;;;17.65;;
30181;SDS011;16990;49.056;9.240;2022-08-19T02:31:24;33.25;;;16.60;;
30181;SDS011;16990;49.056;9.240;2022-08-19T02:33:54;20.13;;;15.65;;
30181;SDS011;16990;49.056;9.240;2022-08-19T02:36:22;18.80;;;15.60;;
30181;SDS011;16990;49.056;9.240;2022-08-19T02:38:49;21.30;;;15.75;;
30181;SDS011;16990;49.056;9.240;2022-08-19T02:41:16;23.25;;;16.55;;
30181;SDS011;16990;49.056;9.240;2022-08-19T02:43:46;21.50;;;16.60;;
30181;SDS011;16990;49.056;9.240;2022-08-19T02:46:14;24.63;;;18.00;;
30181;SDS011;16990;49.056;9.240;2022-08-19T02:48:46;21.30;;;16.55;;
30181;SDS011;16990;49.056;9.240;2022-08-19T02:51:21;23.85;;;17.23;;
30181;SDS011;16990;49.056;9.240;2022-08-19T02:53:49;24.15;;;18.13;;
30181;SDS011;16990;49.056;9.240;2022-08-19T02:56:16;26.15;;;19.15;;
30181;SDS011;16990;49.056;9.240;2022-08-19T02:58:44;25.85;;;19.30;;
30181;SDS011;16990;49.056;9.240;2022-08-19T03:01:18;33.17;;;22.23;;
30181;SDS011;16990;49.056;9.240;2022-08-19T03:03:47;29.95;;;20.98;;
30181;SDS011;16990;49.056;9.240;2022-08-19T03:06:14;29.38;;;19.80;;
30181;SDS011;16990;49.056;9.240;2022-08-19T03:08:44;29.60;;;21.42;;
30181;SDS011;16990;49.056;9.240;2022-08-19T03:11:13;30.67;;;22.23;;
30181;SDS011;16990;49.056;9.240;2022-08-19T03:13:41;32.08;;;20.88;;
30181;SDS011;16990;49.056;9.240;2022-08-19T03:16:09;33.17;;;22.88;;
30181;SDS011;16990;49.056;9.240;2022-08-19T03:18:37;30.02;;;20.95;;
30181;SDS011;16990;49.056;9.240;2022-08-19T03:21:04;32.10;;;21.48;;
30181;SDS011;16990;49.056;9.240;2022-08-19T03:23:31;31.83;;;20.83;;
30181;SDS011;16990;49.056;9.240;2022-08-19T03:26:02;29.80;;;20.08;;
30181;SDS011;16990;49.056;9.240;2022-08-19T03:28:30;31.38;;;21.20;;
30181;SDS011;16990;49.056;9.240;2022-08-19T03:30:59;35.45;;;22.13;;
30181;SDS011;16990;49.056;9.240;2022-08-19T03:33:28;30.75;;;21.38;;
30181;SDS011;16990;49.056;9.240;2022-08-19T03:36:00;34.75;;;20.95;;
30181;SDS011;16990;49.056;9.240;2022-08-19T03:38:29;31.77;;;22.73;;
30181;SDS011;16990;49.056;9.240;2022-08-19T03:40:56;31.25;;;23.58;;
30181;SDS011;16990;49.056;9.240;2022-08-19T03:43:24;39.97;;;23.23;;
30181;SDS011;16990;49.056;9.240;2022-08-19T03:45:59;38.33;;;21.92;;
30181;SDS011;16990;49.056;9.240;2022-08-19T03:48:27;34.10;;;23.45;;
30181;SDS011;16990;49.056;9.240;2022-08-19T03:50:55;31.38;;;22.02;;
30181;SDS011;16990;49.056;9.240;2022-08-19T03:53:24;31.95;;;22.20;;
30181;SDS011;16990;49.056;9.240;2022-08-19T03:55:52;35.08;;;22.23;;
30181;SDS011;16990;49.056;9.240;2022-08-19T03:58:20;36.08;;;22.85;;
30181;SDS011;16990;49.056;9.240;2022-08-19T04:00:48;32.25;;;23.02;;
30181;SDS011;16990;49.056;9.240;2022-08-19T04:03:16;34.97;;;21.90;;
30181;SDS011;16990;49.056;9.240;2022-08-19T04:05:44;31.70;;;21.58;;
30181;SDS011;16990;49.056;9.240;2022-08-19T04:08:11;37.25;;;21.83;;
30181;SDS011;16990;49.056;9.240;2022-08-19T04:10:40;32.58;;;21.88;;
30181;SDS011;16990;49.056;9.240;2022-08-19T04:13:07;38.38;;;25.10;;
30181;SDS011;16990;49.056;9.240;2022-08-19T04:15:38;34.97;;;23.35;;
30181;SDS011;16990;49.056;9.240;2022-08-19T04:18:08;34.03;;;24.45;;
30181;SDS011;16990;49.056;9.240;2022-08-19T04:20:40;35.38;;;24.70;;
30181;SDS011;16990;49.056;9.240;2022-08-19T04:23:08;36.38;;;24.17;;
30181;SDS011;16990;49.056;9.240;2022-08-19T04:25:36;38.70;;;24.50;;
30181;SDS011;16990;49.056;9.240;2022-08-19T04:28:04;38.60;;;26.30;;
30181;SDS011;16990;49.056;9.240;2022-08-19T04:30:37;39.35;;;24.60;;
30181;SDS011;16990;49.056;9.240;2022-08-19T04:33:05;37.63;;;25.25;;
30181;SDS011;16990;49.056;9.240;2022-08-19T04:35:36;39.83;;;25.55;;
30181;SDS011;16990;49.056;9.240;2022-08-19T04:38:04;38.90;;;24.95;;
30181;SDS011;16990;49.056;9.240;2022-08-19T04:40:31;36.38;;;24.20;;
30181;SDS011;16990;49.056;9.240;2022-08-19T04:45:42;36.63;;;23.83;;
30181;SDS011;16990;49.056;9.240;2022-08-19T04:48:10;40.97;;;25.08;;
30181;SDS011;16990;49.056;9.240;2022-08-19T04:50:40;35.65;;;24.58;;
30181;SDS011;16990;49.056;9.240;2022-08-19T04:53:09;36.00;;;24.52;;
30181;SDS011;16990;49.056;9.240;2022-08-19T04:55:40;40.47;;;25.70;;
30181;SDS011;16990;49.056;9.240;2022-08-19T04:58:07;40.03;;;25.70;;
30181;SDS011;16990;49.056;9.240;2022-08-19T05:00:36;32.85;;;23.70;;
30181;SDS011;16990;49.056;9.240;2022-08-19T05:03:04;43.53;;;26.45;;
30181;SDS011;16990;49.056;9.240;2022-08-19T05:05:31;34.78;;;25.92;;
30181;SDS011;16990;49.056;9.240;2022-08-19T05:07:59;38.17;;;25.40;;
30181;SDS011;16990;49.056;9.240;2022-08-19T05:10:26;34.38;;;25.83;;
30181;SDS011;16990;49.056;9.240;2022-08-19T05:12:53;38.97;;;25.80;;
30181;SDS011;16990;49.056;9.240;2022-08-19T05:15:19;40.15;;;24.58;;
30181;SDS011;16990;49.056;9.240;2022-08-19T05:17:46;34.20;;;24.35;;
30181;SDS011;16990;49.056;9.240;2022-08-19T05:20:26;38.38;;;24.25;;
30181;SDS011;16990;49.056;9.240;2022-08-19T05:23:12;35.30;;;24.92;;
30181;SDS011;16990;49.056;9.240;2022-08-19T05:25:42;40.58;;;23.77;;
30181;SDS011;16990;49.056;9.240;2022-08-19T05:28:09;34.63;;;24.92;;
30181;SDS011;16990;49.056;9.240;2022-08-19T05:30:36;34.30;;;23.90;;
30181;SDS011;16990;49.056;9.240;2022-08-19T05:33:03;34.20;;;22.60;;
30181;SDS011;16990;49.056;9.240;2022-08-19T05:35:29;36.10;;;23.92;;
30181;SDS011;16990;49.056;9.240;2022-08-19T05:37:56;37.33;;;24.40;;
30181;SDS011;16990;49.056;9.240;2022-08-19T05:40:24;36.35;;;24.23;;
30181;SDS011;16990;49.056;9.240;2022-08-19T05:42:50;36.45;;;23.30;;
30181;SDS011;16990;49.056;9.240;2022-08-19T05:45:18;32.40;;;24.50;;
30181;SDS011;16990;49.056;9.240;2022-08-19T05:47:45;43.58;;;25.48;;
30181;SDS011;16990;49.056;9.240;2022-08-19T05:50:12;34.15;;;25.02;;
30181;SDS011;16990;49.056;9.240;2022-08-19T05:52:39;37.10;;;24.52;;
30181;SDS011;16990;49.056;9.240;2022-08-19T05:55:06;39.70;;;26.20;;
30181;SDS011;16990;49.056;9.240;2022-08-19T05:57:34;44.13;;;24.33;;
30181;SDS011;16990;49.056;9.240;2022-08-19T06:00:01;32.30;;;24.23;;
30181;SDS011;16990;49.056;9.240;2022-08-19T06:02:33;39.08;;;25.08;;
30181;SDS011;16990;49.056;9.240;2022-08-19T06:05:00;42.17;;;24.25;;
30181;SDS011;16990;49.056;9.240;2022-08-19T06:07:27;39.20;;;25.67;;
30181;SDS011;16990;49.056;9.240;2022-08-19T06:09:54;45.35;;;25.40;;
30181;SDS011;16990;49.056;9.240;2022-08-19T06:12:21;39.03;;;24.02;;
30181;SDS011;16990;49.056;9.240;2022-08-19T06:14:52;43.03;;;25.35;;
30181;SDS011;16990;49.056;9.240;2022-08-19T06:17:20;40.05;;;23.92;;
30181;SDS011;16990;49.056;9.240;2022-08-19T06:19:50;38.53;;;24.77;;
30181;SDS011;16990;49.056;9.240;2022-08-19T06:22:17;36.42;;;23.73;;
30181;SDS011;16990;49.056;9.240;2022-08-19T06:24:43;39.53;;;25.38;;
30181;SDS011;16990;49.056;9.240;2022-08-19T06:27:10;35.63;;;25.20;;
30181;SDS011;16990;49.056;9.240;2022-08-19T06:29:36;40.05;;;23.67;;
30181;SDS011;16990;49.056;9.240;2022-08-19T06:32:05;31.33;;;24.05;;
30181;SDS011;16990;49.056;9.240;2022-08-19T06:34:32;36.30;;;24.80;;
30181;SDS011;16990;49.056;9.240;2022-08-19T06:37:00;39.60;;;25.42;;
30181;SDS011;16990;49.056;9.240;2022-08-19T06:39:29;38.40;;;24.70;;
30181;SDS011;16990;49.056;9.240;2022-08-19T06:41:58;35.97;;;25.38;;
30181;SDS011;16990;49.056;9.240;2022-08-19T06:44:28;36.10;;;25.13;;
30181;SDS011;16990;49.056;9.240;2022-08-19T06:47:01;31.27;;;24.10;;
30181;SDS011;16990;49.056;9.240;2022-08-19T06:49:30;36.40;;;25.48;;
30181;SDS011;16990;49.056;9.240;2022-08-19T06:51:58;34.28;;;24.92;;
30181;SDS011;16990;49.056;9.240;2022-08-19T06:54:26;38.83;;;25.30;;
30181;SDS011;16990;49.056;9.240;2022-08-19T06:56:54;38.50;;;26.48;;
30181;SDS011;16990;49.056;9.240;2022-08-19T06:59:22;36.90;;;24.40;;
30181;SDS011;16990;49.056;9.240;2022-08-19T07:01:53;31.92;;;23.50;;
30181;SDS011;16990;49.056;9.240;2022-08-19T07:04:22;33.17;;;23.65;;
30181;SDS011;16990;49.056;9.240;2022-08-19T07:06:56;39.65;;;25.40;;
30181;SDS011;16990;49.056;9.240;2022-08-19T07:09:24;37.13;;;25.58;;
30181;SDS011;16990;49.056;9.240;2022-08-19T07:11:51;36.75;;;24.23;;
30181;SDS011;16990;49.056;9.240;2022-08-19T07:14:20;37.40;;;22.35;;
30181;SDS011;16990;49.056;9.240;2022-08-19T07:16:49;33.35;;;22.17;;
30181;SDS011;16990;49.056;9.240;2022-08-19T07:19:20;31.88;;;20.50;;
30181;SDS011;16990;49.056;9.240;2022-08-19T07:21:47;37.53;;;23.38;;
30181;SDS011;16990;49.056;9.240;2022-08-19T07:24:19;36.60;;;21.98;;
30181;SDS011;16990;49.056;9.240;2022-08-19T07:26:49;33.47;;;21.58;;
30181;SDS011;16990;49.056;9.240;2022-08-19T07:29:18;32.28;;;22.33;;
30181;SDS011;16990;49.056;9.240;2022-08-19T07:31:48;34.13;;;23.67;;
30181;SDS011;16990;49.056;9.240;2022-08-19T07:34:15;36.53;;;22.55;;
30181;SDS011;16990;49.056;9.240;2022-08-19T07:36:42;35.80;;;23.35;;
30181;SDS011;16990;49.056;9.240;2022-08-19T07:39:10;36.65;;;22.52;;
30181;SDS011;16990;49.056;9.240;2022-08-19T07:41:46;36.70;;;22.20;;
30181;SDS011;16990;49.056;9.240;2022-08-19T07:44:13;30.88;;;22.02;;
30181;SDS011;16990;49.056;9.240;2022-08-19T07:46:42;32.10;;;21.10;;
30181;SDS011;16990;49.056;9.240;2022-08-19T07:49:17;39.50;;;22.27;;
30181;SDS011;16990;49.056;9.240;2022-08-19T07:51:44;35.53;;;21.35;;
30181;SDS011;16990;49.056;9.240;2022-08-19T07:54:12;30.70;;;19.92;;
30181;SDS011;16990;49.056;9.240;2022-08-19T07:56:38;38.22;;;20.90;;
30181;SDS011;16990;49.056;9.240;2022-08-19T07:59:07;30.23;;;20.77;;
30181;SDS011;16990;49.056;9.240;2022-08-19T08:01:34;29.50;;;20.83;;
30181;SDS011;16990;49.056;9.240;2022-08-19T08:04:01;33.22;;;19.38;;
30181;SDS011;16990;49.056;9.240;2022-08-19T08:09:31;28.35;;;19.05;;
30181;SDS011;16990;49.056;9.240;2022-08-19T08:12:00;28.98;;;17.95;;
30181;SDS011;16990;49.056;9.240;2022-08-19T08:14:38;33.58;;;20.17;;
30181;SDS011;16990;49.056;9.240;2022-08-19T08:17:07;26.95;;;17.77;;
30181;SDS011;16990;49.056;9.240;2022-08-19T08:19:34;31.15;;;18.75;;
30181;SDS011;16990;49.056;9.240;2022-08-19T08:22:02;31.30;;;17.80;;
30181;SDS011;16990;49.056;9.240;2022-08-19T08:24:30;24.98;;;17.30;;
30181;SDS011;16990;49.056;9.240;2022-08-19T08:26:59;27.58;;;17.98;;
30181;SDS011;16990;49.056;9.240;2022-08-19T08:29:27;29.80;;;18.15;;
30181;SDS011;16990;49.056;9.240;2022-08-19T08:31:57;28.85;;;19.05;;
30181;SDS011;16990;49.056;9.240;2022-08-19T08:34:24;27.95;;;18.92;;
30181;SDS011;16990;49.056;9.240;2022-08-19T08:36:50;31.92;;;16.67;;
30181;SDS011;16990;49.056;9.240;2022-08-19T08:39:18;29.67;;;18.88;;
30181;SDS011;16990;49.056;9.240;2022-08-19T08:41:50;24.75;;;17.50;;
30181;SDS011;16990;49.056;9.240;2022-08-19T08:44:21;27.50;;;17.10;;
30181;SDS011;16990;49.056;9.240;2022-08-19T08:46:55;32.05;;;18.25;;
30181;SDS011;16990;49.056;9.240;2022-08-19T08:49:28;22.85;;;17.35;;
30181;SDS011;16990;49.056;9.240;2022-08-19T08:52:02;25.15;;;17.70;;
30181;SDS011;16990;49.056;9.240;2022-08-19T08:54:32;30.67;;;17.73;;
30181;SDS011;16990;49.056;9.240;2022-08-19T08:57:03;28.48;;;17.50;;
30181;SDS011;16990;49.056;9.240;2022-08-19T08:59:34;26.95;;;17.85;;
30181;SDS011;16990;49.056;9.240;2022-08-19T09:02:05;21.23;;;16.42;;
30181;SDS011;16990;49.056;9.240;2022-08-19T09:04:31;25.58;;;16.75;;
30181;SDS011;16990;49.056;9.240;2022-08-19T09:07:03;26.70;;;15.73;;
30181;SDS011;16990;49.056;9.240;2022-08-19T09:12:13;20.55;;;14.93;;
30181;SDS011;16990;49.056;9.240;2022-08-19T09:14:49;19.27;;;14.13;;
30181;SDS011;16990;49.056;9.240;2022-08-19T09:17:22;20.77;;;14.35;;
30181;SDS011;16990;49.056;9.240;2022-08-19T09:19:57;24.70;;;13.68;;
30181;SDS011;16990;49.056;9.240;2022-08-19T09:22:29;20.83;;;14.05;;
30181;SDS011;16990;49.056;9.240;2022-08-19T09:24:56;22.35;;;13.07;;
30181;SDS011;16990;49.056;9.240;2022-08-19T09:27:23;19.67;;;14.20;;
30181;SDS011;16990;49.056;9.240;2022-08-19T09:29:51;24.83;;;13.32;;
30181;SDS011;16990;49.056;9.240;2022-08-19T09:32:19;19.02;;;13.30;;
30181;SDS011;16990;49.056;9.240;2022-08-19T09:34:48;18.80;;;12.93;;
30181;SDS011;16990;49.056;9.240;2022-08-19T09:37:15;26.58;;;14.32;;
30181;SDS011;16990;49.056;9.240;2022-08-19T09:39:41;20.65;;;13.25;;
30181;SDS011;16990;49.056;9.240;2022-08-19T09:42:09;21.23;;;13.57;;
30181;SDS011;16990;49.056;9.240;2022-08-19T09:44:37;22.52;;;12.70;;
30181;SDS011;16990;49.056;9.240;2022-08-19T09:47:04;21.65;;;13.10;;
30181;SDS011;16990;49.056;9.240;2022-08-19T09:49:33;18.83;;;12.65;;
30181;SDS011;16990;49.056;9.240;2022-08-19T09:52:00;22.77;;;11.82;;
30181;SDS011;16990;49.056;9.240;2022-08-19T09:54:27;16.27;;;12.13;;
30181;SDS011;16990;49.056;9.240;2022-08-19T09:56:54;15.00;;;11.35;;
30181;SDS011;16990;49.056;9.240;2022-08-19T09:59:25;17.38;;;12.10;;
30181;SDS011;16990;49.056;9.240;2022-08-19T10:01:52;20.33;;;11.38;;
30181;SDS011;16990;49.056;9.240;2022-08-19T10:04:19;20.33;;;11.45;;
30181;SDS011;16990;49.056;9.240;2022-08-19T10:06:48;19.23;;;11.20;;
30181;SDS011;16990;49.056;9.240;2022-08-19T10:09:17;15.65;;;9.40;;
30181;SDS011;16990;49.056;9.240;2022-08-19T10:11:44;22.10;;;9.85;;
30181;SDS011;16990;49.056;9.240;2022-08-19T10:14:15;16.25;;;10.30;;
30181;SDS011;16990;49.056;9.240;2022-08-19T10:16:42;15.77;;;10.20;;
30181;SDS011;16990;49.056;9.240;2022-08-19T10:19:09;14.82;;;9.93;;
30181;SDS011;16990;49.056;9.240;2022-08-19T10:21:36;16.75;;;9.55;;
30181;SDS011;16990;49.056;9.240;2022-08-19T10:24:05;15.82;;;10.40;;
30181;SDS011;16990;49.056;9.240;2022-08-19T10:26:33;18.38;;;11.35;;
30181;SDS011;16990;49.056;9.240;2022-08-19T10:29:02;18.67;;;11.30;;
30181;SDS011;16990;49.056;9.240;2022-08-19T10:31:31;21.40;;;12.15;;
30181;SDS011;16990;49.056;9.240;2022-08-19T10:33:59;16.77;;;10.80;;
30181;SDS011;16990;49.056;9.240;2022-08-19T10:36:27;17.67;;;10.40;;
30181;SDS011;16990;49.056;9.240;2022-08-19T10:38:57;15.98;;;10.48;;
30181;SDS011;16990;49.056;9.240;2022-08-19T10:41:28;18.20;;;10.63;;
30181;SDS011;16990;49.056;9.240;2022-08-19T10:43:58;11.35;;;8.00;;
30181;SDS011;16990;49.056;9.240;2022-08-19T10:46:27;11.73;;;8.07;;
30181;SDS011;16990;49.056;9.240;2022-08-19T10:48:57;13.07;;;6.32;;
30181;SDS011;16990;49.056;9.240;2022-08-19T10:51:24;17.40;;;6.70;;
30181;SDS011;16990;49.056;9.240;2022-08-19T10:54:09;10.85;;;6.47;;
30181;SDS011;16990;49.056;9.240;2022-08-19T10:56:37;8.88;;;6.40;;
30181;SDS011;16990;49.056;9.240;2022-08-19T10:59:19;20.10;;;6.25;;
30181;SDS011;16990;49.056;9.240;2022-08-19T11:01:47;9.63;;;5.32;;
30181;SDS011;16990;49.056;9.240;2022-08-19T11:04:15;9.55;;;5.50;;
30181;SDS011;16990;49.056;9.240;2022-08-19T11:06:42;9.23;;;5.82;;
30181;SDS011;16990;49.056;9.240;2022-08-19T11:09:10;6.18;;;5.15;;
30181;SDS011;16990;49.056;9.240;2022-08-19T11:11:38;7.03;;;5.43;;
30181;SDS011;16990;49.056;9.240;2022-08-19T11:14:06;7.78;;;5.13;;
30181;SDS011;16990;49.056;9.240;2022-08-19T11:16:33;13.77;;;5.85;;
30181;SDS011;16990;49.056;9.240;2022-08-19T11:19:00;10.98;;;5.38;;
30181;SDS011;16990;49.056;9.240;2022-08-19T11:21:27;11.88;;;5.68;;
30181;SDS011;16990;49.056;9.240;2022-08-19T11:23:59;9.88;;;4.90;;
30181;SDS011;16990;49.056;9.240;2022-08-19T11:26:28;7.10;;;5.28;;
30181;SDS011;16990;49.056;9.240;2022-08-19T11:28:58;10.18;;;5.70;;
30181;SDS011;16990;49.056;9.240;2022-08-19T11:31:27;8.85;;;5.03;;
30181;SDS011;16990;49.056;9.240;2022-08-19T11:33:56;9.85;;;5.30;;
30181;SDS011;16990;49.056;9.240;2022-08-19T11:36:24;6.95;;;5.10;;
30181;SDS011;16990;49.056;9.240;2022-08-19T11:38:52;9.25;;;5.43;;
30181;SDS011;16990;49.056;9.240;2022-08-19T11:41:20;8.48;;;4.88;;
30181;SDS011;16990;49.056;9.240;2022-08-19T11:43:48;7.22;;;4.82;;
30181;SDS011;16990;49.056;9.240;2022-08-19T11:46:16;12.40;;;5.00;;
30181;SDS011;16990;49.056;9.240;2022-08-19T11:48:43;5.65;;;4.32;;
30181;SDS011;16990;49.056;9.240;2022-08-19T11:51:12;6.47;;;4.75;;
30181;SDS011;16990;49.056;9.240;2022-08-19T11:53:41;10.38;;;5.55;;
30181;SDS011;16990;49.056;9.240;2022-08-19T11:56:08;7.20;;;5.47;;
30181;SDS011;16990;49.056;9.240;2022-08-19T11:58:35;9.90;;;5.18;;
30181;SDS011;16990;49.056;9.240;2022-08-19T12:01:04;5.95;;;4.30;;
30181;SDS011;16990;49.056;9.240;2022-08-19T12:03:33;6.07;;;4.70;;
30181;SDS011;16990;49.056;9.240;2022-08-19T12:06:02;5.28;;;4.47;;
30181;SDS011;16990;49.056;9.240;2022-08-19T12:08:30;10.60;;;5.20;;
30181;SDS011;16990;49.056;9.240;2022-08-19T12:10:57;7.20;;;4.85;;
30181;SDS011;16990;49.056;9.240;2022-08-19T12:13:26;6.15;;;4.30;;
30181;SDS011;16990;49.056;9.240;2022-08-19T12:15:53;6.40;;;4.57;;
30181;SDS011;16990;49.056;9.240;2022-08-19T12:18:19;6.30;;;4.50;;
30181;SDS011;16990;49.056;9.240;2022-08-19T12:20:50;8.45;;;4.93;;
30181;SDS011;16990;49.056;9.240;2022-08-19T12:23:18;9.23;;;5.20;;
30181;SDS011;16990;49.056;9.240;2022-08-19T12:25:45;5.80;;;4.63;;
30181;SDS011;16990;49.056;9.240;2022-08-19T12:28:15;6.45;;;4.72;;
30181;SDS011;16990;49.056;9.240;2022-08-19T12:30:42;11.80;;;5.82;;
30181;SDS011;16990;49.056;9.240;2022-08-19T12:33:08;7.13;;;4.25;;
30181;SDS011;16990;49.056;9.240;2022-08-19T12:35:38;5.78;;;4.35;;
30181;SDS011;16990;49.056;9.240;2022-08-19T12:38:07;7.03;;;5.13;;
30181;SDS011;16990;49.056;9.240;2022-08-19T12:40:34;12.13;;;4.97;;
30181;SDS011;16990;49.056;9.240;2022-08-19T12:43:00;6.32;;;4.53;;
30181;SDS011;16990;49.056;9.240;2022-08-19T12:45:27;14.00;;;4.95;;
30181;SDS011;16990;49.056;9.240;2022-08-19T12:47:54;10.35;;;4.28;;
30181;SDS011;16990;49.056;9.240;2022-08-19T12:50:20;8.30;;;5.10;;
30181;SDS011;16990;49.056;9.240;2022-08-19T12:52:47;8.48;;;5.05;;
30181;SDS011;16990;49.056;9.240;2022-08-19T12:55:15;6.65;;;5.20;;
30181;SDS011;16990;49.056;9.240;2022-08-19T12:57:43;6.82;;;5.35;;
30181;SDS011;16990;49.056;9.240;2022-08-19T13:00:11;7.03;;;5.28;;
30181;SDS011;16990;49.056;9.240;2022-08-19T13:02:41;10.70;;;5.00;;
30181;SDS011;16990;49.056;9.240;2022-08-19T13:05:11;6.85;;;4.50;;
30181;SDS011;16990;49.056;9.240;2022-08-19T13:07:41;6.53;;;5.00;;
30181;SDS011;16990;49.056;9.240;2022-08-19T13:10:10;11.40;;;5.18;;
30181;SDS011;16990;49.056;9.240;2022-08-19T13:12:40;9.93;;;5.63;;
30181;SDS011;16990;49.056;9.240;2022-08-19T13:15:08;9.13;;;5.90;;
30181;SDS011;16990;49.056;9.240;2022-08-19T13:17:36;12.27;;;6.10;;
30181;SDS011;16990;49.056;9.240;2022-08-19T13:20:03;8.18;;;5.10;;
30181;SDS011;16990;49.056;9.240;2022-08-19T13:22:32;8.70;;;5.65;;
30181;SDS011;16990;49.056;9.240;2022-08-19T13:25:01;6.75;;;5.03;;
30181;SDS011;16990;49.056;9.240;2022-08-19T13:27:28;7.20;;;5.63;;
30181;SDS011;16990;49.056;9.240;2022-08-19T13:29:56;11.55;;;6.97;;
30181;SDS011;16990;49.056;9.240;2022-08-19T13:32:40;8.02;;;5.32;;
30181;SDS011;16990;49.056;9.240;2022-08-19T13:35:25;7.13;;;5.57;;
30181;SDS011;16990;49.056;9.240;2022-08-19T13:37:52;8.27;;;5.38;;
30181;SDS011;16990;49.056;9.240;2022-08-19T13:40:19;7.47;;;5.43;;
30181;SDS011;16990;49.056;9.240;2022-08-19T13:42:51;5.90;;;4.82;;
30181;SDS011;16990;49.056;9.240;2022-08-19T13:45:23;6.80;;;4.18;;
30181;SDS011;16990;49.056;9.240;2022-08-19T13:47:52;5.57;;;4.15;;
30181;SDS011;16990;49.056;9.240;2022-08-19T13:50:21;5.63;;;4.35;;
30181;SDS011;16990;49.056;9.240;2022-08-19T13:52:49;8.05;;;4.78;;
30181;SDS011;16990;49.056;9.240;2022-08-19T13:55:16;10.25;;;4.53;;
30181;SDS011;16990;49.056;9.240;2022-08-19T13:57:43;6.95;;;4.25;;
30181;SDS011;16990;49.056;9.240;2022-08-19T14:00:12;14.98;;;4.32;;
30181;SDS011;16990;49.056;9.240;2022-08-19T14:02:44;7.65;;;4.40;;
30181;SDS011;16990;49.056;9.240;2022-08-19T14:05:12;5.97;;;3.47;;
30181;SDS011;16990;49.056;9.240;2022-08-19T14:07:41;7.60;;;4.20;;
30181;SDS011;16990;49.056;9.240;2022-08-19T14:10:08;10.48;;;4.15;;
30181;SDS011;16990;49.056;9.240;2022-08-19T14:12:37;7.35;;;4.32;;
30181;SDS011;16990;49.056;9.240;2022-08-19T14:15:06;10.38;;;4.53;;
30181;SDS011;16990;49.056;9.240;2022-08-19T14:17:34;6.95;;;4.65;;
30181;SDS011;16990;49.056;9.240;2022-08-19T14:20:06;8.27;;;4.13;;
30181;SDS011;16990;49.056;9.240;2022-08-19T14:22:34;7.28;;;5.05;;
30181;SDS011;16990;49.056;9.240;2022-08-19T14:25:02;8.07;;;5.10;;
30181;SDS011;16990;49.056;9.240;2022-08-19T14:27:30;9.13;;;5.00;;
30181;SDS011;16990;49.056;9.240;2022-08-19T14:29:58;8.32;;;5.32;;
30181;SDS011;16990;49.056;9.240;2022-08-19T14:32:25;8.32;;;5.03;;
30181;SDS011;16990;49.056;9.240;2022-08-19T14:34:52;7.03;;;5.35;;
30181;SDS011;16990;49.056;9.240;2022-08-19T14:37:21;11.05;;;4.78;;
30181;SDS011;16990;49.056;9.240;2022-08-19T14:39:47;8.48;;;4.38;;
30181;SDS011;16990;49.056;9.240;2022-08-19T14:42:14;7.45;;;4.32;;
30181;SDS011;16990;49.056;9.240;2022-08-19T14:44:41;8.68;;;4.60;;